createdAt,value
2022-09-20T00:00:43.830Z,9.00
2022-09-20T00:03:11.499Z,9.00
2022-09-20T00:05:39.744Z,9.00
2022-09-20T00:08:08.916Z,9.00
2022-09-20T00:10:39.274Z,9.00
2022-09-20T00:13:07.457Z,8.90
2022-09-20T00:15:34.677Z,8.90
2022-09-20T00:18:01.802Z,8.90
2022-09-20T00:20:28.918Z,8.90
2022-09-20T00:22:56.097Z,8.90
2022-09-20T00:25:23.224Z,8.90
2022-09-20T00:27:50.354Z,8.90
2022-09-20T00:30:17.583Z,8.90
2022-09-20T00:32:44.701Z,8.90
2022-09-20T00:35:11.836Z,8.90
2022-09-20T00:37:40.406Z,8.90
2022-09-20T00:40:16.226Z,8.90
2022-09-20T00:42:43.437Z,8.90
2022-09-20T00:45:18.974Z,8.90
2022-09-20T00:47:58.102Z,8.90
2022-09-20T00:50:41.246Z,8.90
2022-09-20T00:53:14.404Z,8.90
2022-09-20T00:55:45.544Z,8.90
2022-09-20T00:58:13.053Z,8.90
2022-09-20T01:00:40.193Z,8.90
2022-09-20T01:03:08.645Z,8.90
2022-09-20T01:05:35.837Z,8.90
2022-09-20T01:08:03.115Z,8.90
2022-09-20T01:10:31.585Z,8.90
2022-09-20T01:12:59.114Z,8.90
2022-09-20T01:15:27.721Z,8.90
2022-09-20T01:23:45.957Z,8.90
2022-09-20T01:26:41.056Z,9.00
2022-09-20T01:30:09.710Z,9.00
2022-09-20T01:32:56.168Z,8.90
2022-09-20T01:35:24.121Z,8.90
2022-09-20T01:38:10.906Z,8.90
2022-09-20T01:41:08.886Z,8.90
2022-09-20T01:43:38.881Z,8.90
2022-09-20T01:46:32.949Z,8.90
2022-09-20T01:49:24.860Z,8.90
2022-09-20T01:52:29.537Z,8.90
2022-09-20T01:55:11.708Z,8.90
2022-09-20T01:57:58.885Z,8.90
2022-09-20T02:00:27.229Z,8.80
2022-09-20T02:03:12.937Z,8.80
2022-09-20T02:06:23.217Z,8.80
2022-09-20T02:09:13.094Z,8.80
2022-09-20T02:12:06.022Z,8.80
2022-09-20T02:14:58.373Z,8.80
2022-09-20T02:17:57.769Z,8.80
2022-09-20T02:23:49.196Z,8.80
2022-09-20T02:26:34.975Z,8.80
2022-09-20T02:29:10.216Z,8.80
2022-09-20T02:31:50.716Z,8.70
2022-09-20T02:34:39.233Z,8.70
2022-09-20T02:37:18.594Z,8.70
2022-09-20T02:39:48.128Z,8.70
2022-09-20T02:42:24.402Z,8.70
2022-09-20T02:45:03.685Z,8.70
2022-09-20T02:47:41.365Z,8.70
2022-09-20T02:50:26.581Z,8.70
2022-09-20T02:53:27.697Z,8.70
2022-09-20T02:56:06.810Z,8.70
2022-09-20T02:58:36.418Z,8.70
2022-09-20T03:01:31.125Z,8.70
2022-09-20T03:04:10.255Z,8.70
2022-09-20T03:06:40.468Z,8.70
2022-09-20T03:09:30.205Z,8.70
2022-09-20T03:12:33.208Z,8.70
2022-09-20T03:15:40.490Z,8.70
2022-09-20T03:18:14.867Z,8.70
2022-09-20T03:20:41.880Z,8.60
2022-09-20T03:26:53.489Z,8.70
2022-09-20T03:33:11.261Z,8.60
2022-09-20T03:36:04.960Z,8.60
2022-09-20T03:38:51.400Z,8.60
2022-09-20T03:41:27.498Z,8.60
2022-09-20T03:43:54.566Z,8.60
2022-09-20T03:46:48.786Z,8.60
2022-09-20T03:49:24.958Z,8.60
2022-09-20T03:52:22.118Z,8.60
2022-09-20T03:54:49.826Z,8.60
2022-09-20T03:57:38.960Z,8.60
2022-09-20T04:00:20.714Z,8.60
2022-09-20T04:03:18.945Z,8.50
2022-09-20T04:06:17.667Z,8.60
2022-09-20T04:08:53.683Z,8.50
2022-09-20T04:11:25.036Z,8.60
2022-09-20T04:13:59.788Z,8.60
2022-09-20T04:16:53.874Z,8.50
2022-09-20T04:19:26.837Z,8.60
2022-09-20T04:22:00.650Z,8.60
2022-09-20T04:24:40.112Z,8.60
2022-09-20T04:27:22.842Z,8.60
2022-09-20T04:30:05.297Z,8.60
2022-09-20T04:32:36.573Z,8.60
2022-09-20T04:35:44.252Z,8.50
2022-09-20T04:38:14.791Z,8.50
2022-09-20T04:41:01.316Z,8.50
2022-09-20T04:43:53.633Z,8.50
2022-09-20T04:46:45.286Z,8.50
2022-09-20T04:49:50.396Z,8.50
2022-09-20T04:52:23.584Z,8.50
2022-09-20T04:55:07.189Z,8.50
2022-09-20T04:58:02.006Z,8.50
2022-09-20T05:00:55.876Z,8.50
2022-09-20T05:03:41.188Z,8.50
2022-09-20T05:06:20.274Z,8.50
2022-09-20T05:09:21.223Z,8.50
2022-09-20T05:12:10.146Z,8.50
2022-09-20T05:14:41.670Z,8.40
2022-09-20T05:17:34.356Z,8.40
2022-09-20T05:20:14.124Z,8.40
2022-09-20T05:23:13.627Z,8.40
2022-09-20T05:26:19.624Z,8.40
2022-09-20T05:28:53.284Z,8.40
2022-09-20T05:31:34.321Z,8.40
2022-09-20T05:34:19.430Z,8.40
2022-09-20T05:37:00.930Z,8.40
2022-09-20T05:39:38.686Z,8.40
2022-09-20T05:42:40.370Z,8.40
2022-09-20T05:45:29.026Z,8.40
2022-09-20T05:48:39.468Z,8.40
2022-09-20T05:51:20.085Z,8.50
2022-09-20T05:54:08.021Z,8.50
2022-09-20T05:56:59.323Z,8.50
2022-09-20T05:59:54.570Z,8.50
2022-09-20T06:02:38.233Z,8.50
2022-09-20T06:05:19.554Z,8.50
2022-09-20T06:07:57.611Z,8.50
2022-09-20T06:11:18.616Z,8.50
2022-09-20T06:14:09.321Z,8.60
2022-09-20T06:16:53.958Z,8.50
2022-09-20T06:19:42.459Z,8.60
2022-09-20T06:22:35.648Z,8.60
2022-09-20T06:25:08.887Z,8.60
2022-09-20T06:28:14.640Z,8.60
2022-09-20T06:30:45.039Z,8.60
2022-09-20T06:33:17.040Z,8.60
2022-09-20T06:35:44.118Z,8.60
2022-09-20T06:38:37.741Z,8.60
2022-09-20T06:41:23.420Z,8.60
2022-09-20T06:43:50.730Z,8.60
2022-09-20T06:46:18.002Z,8.60
2022-09-20T06:48:45.160Z,8.60
2022-09-20T06:51:12.464Z,8.60
2022-09-20T06:53:40.243Z,8.60
2022-09-20T06:56:15.109Z,8.70
2022-09-20T06:58:42.287Z,8.70
2022-09-20T07:01:09.510Z,8.70
2022-09-20T07:03:37.845Z,8.70
2022-09-20T07:06:05.167Z,8.70
2022-09-20T07:08:32.296Z,8.70
2022-09-20T07:11:04.348Z,8.70
2022-09-20T07:13:31.608Z,8.70
2022-09-20T07:16:06.260Z,8.80
2022-09-20T07:18:33.518Z,8.80
2022-09-20T07:21:01.129Z,8.80
2022-09-20T07:23:29.698Z,8.80
2022-09-20T07:26:00.988Z,8.80
2022-09-20T07:28:28.726Z,8.80
2022-09-20T07:30:55.896Z,8.80
2022-09-20T07:33:24.946Z,8.80
2022-09-20T07:35:54.392Z,8.80
2022-09-20T07:38:22.475Z,8.80
2022-09-20T07:41:00.550Z,8.80
2022-09-20T07:43:29.100Z,8.80
2022-09-20T07:45:56.494Z,8.80
2022-09-20T07:48:28.797Z,8.80
2022-09-20T07:51:17.787Z,8.80
2022-09-20T07:53:45.046Z,8.80
2022-09-20T07:56:18.476Z,8.80
2022-09-20T07:58:50.015Z,8.80
2022-09-20T08:01:21.006Z,8.80
2022-09-20T08:04:16.474Z,8.80
2022-09-20T08:09:26.501Z,8.80
2022-09-20T08:11:54.193Z,8.80
2022-09-20T08:17:30.549Z,8.80
2022-09-20T08:19:59.479Z,8.80
2022-09-20T08:22:37.539Z,8.90
2022-09-20T08:25:06.021Z,8.90
2022-09-20T09:44:27.878Z,9.90
2022-09-20T09:46:56.607Z,10.00
2022-09-20T09:49:29.352Z,10.00
2022-09-20T09:52:06.161Z,10.00
2022-09-20T09:54:38.448Z,10.00
2022-09-20T09:57:10.904Z,10.00
2022-09-20T10:00:05.996Z,10.10
2022-09-20T10:03:07.053Z,10.10
2022-09-20T10:05:47.838Z,10.00
2022-09-20T10:09:10.963Z,10.10
2022-09-20T10:12:03.445Z,10.00
2022-09-20T10:14:49.419Z,10.10
2022-09-20T10:17:31.892Z,10.10
2022-09-20T10:20:22.642Z,10.00
2022-09-20T10:23:58.620Z,10.10
2022-09-20T10:26:44.142Z,10.00
2022-09-20T10:30:10.385Z,10.10
2022-09-20T10:32:39.333Z,10.10
2022-09-20T10:35:23.911Z,10.10
2022-09-20T10:38:09.933Z,10.10
2022-09-20T10:41:27.902Z,10.20
2022-09-20T10:44:05.046Z,10.20
2022-09-20T10:46:56.028Z,10.20
2022-09-20T10:49:43.610Z,10.20
2022-09-20T10:52:17.483Z,10.20
2022-09-20T10:55:35.157Z,10.20
2022-09-20T10:58:29.555Z,10.20
2022-09-20T11:01:07.054Z,10.20
2022-09-20T11:03:48.967Z,10.20
2022-09-20T11:06:21.500Z,10.20
2022-09-20T11:08:54.172Z,10.20
2022-09-20T11:11:34.739Z,10.30
2022-09-20T11:14:13.345Z,10.50
2022-09-20T11:16:46.238Z,10.60
2022-09-20T11:19:34.749Z,10.70
2022-09-20T11:22:19.667Z,10.80
2022-09-20T11:24:50.920Z,10.90
2022-09-20T11:27:19.292Z,11.00
2022-09-20T11:30:18.713Z,11.10
2022-09-20T11:32:55.125Z,11.20
2022-09-20T11:35:37.753Z,11.30
2022-09-20T11:38:50.936Z,11.20
2022-09-20T11:41:27.021Z,11.30
2022-09-20T11:44:14.431Z,11.40
2022-09-20T11:46:54.014Z,11.40
2022-09-20T11:49:31.178Z,11.50
2022-09-20T11:52:17.454Z,11.40
2022-09-20T11:54:55.768Z,11.40
2022-09-20T11:57:23.309Z,11.40
2022-09-20T11:59:54.031Z,11.40
2022-09-20T12:02:42.498Z,11.40
2022-09-20T12:05:39.573Z,11.30
2022-09-20T12:08:33.997Z,11.30
2022-09-20T12:11:14.642Z,11.30
2022-09-20T12:13:43.339Z,11.30
2022-09-20T12:16:16.631Z,11.40
2022-09-20T12:19:02.665Z,11.30
2022-09-20T12:21:32.638Z,11.40
2022-09-20T12:24:02.192Z,11.50
2022-09-20T12:26:40.237Z,11.50
2022-09-20T12:29:34.206Z,11.60
2022-09-20T12:32:05.452Z,11.60
2022-09-20T12:34:35.202Z,11.60
2022-09-20T12:37:05.055Z,11.70
2022-09-20T12:39:34.676Z,11.70
2022-09-20T12:42:07.868Z,11.70
2022-09-20T12:44:36.533Z,11.70
2022-09-20T12:47:10.716Z,11.70
2022-09-20T12:50:06.047Z,11.70
2022-09-20T12:52:50.392Z,11.70
2022-09-20T12:55:32.882Z,11.70
2022-09-20T12:58:03.231Z,11.70
2022-09-20T13:00:39.484Z,11.60
2022-09-20T13:03:18.499Z,11.60
2022-09-20T13:05:46.683Z,11.60
2022-09-20T13:08:27.900Z,11.60
2022-09-20T13:11:40.959Z,11.60
2022-09-20T13:14:08.179Z,11.60
2022-09-20T13:16:55.610Z,11.60
2022-09-20T13:19:25.917Z,11.60
2022-09-20T13:21:58.394Z,11.60
2022-09-20T13:24:29.896Z,11.60
2022-09-20T13:27:01.837Z,11.70
2022-09-20T13:29:39.458Z,11.80
2022-09-20T13:32:26.221Z,11.90
2022-09-20T13:35:16.774Z,12.00
2022-09-20T13:38:02.015Z,12.00
2022-09-20T13:40:39.569Z,12.00
2022-09-20T13:43:37.135Z,12.00
2022-09-20T13:46:09.766Z,11.90
2022-09-20T13:48:37.112Z,11.80
2022-09-20T13:51:18.190Z,11.80
2022-09-20T13:53:46.799Z,11.70
2022-09-20T13:56:25.833Z,11.60
2022-09-20T13:58:53.203Z,11.60
2022-09-20T14:01:29.992Z,11.50
2022-09-20T14:04:14.752Z,11.50
2022-09-20T14:06:42.598Z,11.50
2022-09-20T14:09:19.795Z,11.50
2022-09-20T14:11:47.258Z,11.50
2022-09-20T14:14:40.709Z,11.60
2022-09-20T14:17:09.575Z,11.70
2022-09-20T14:19:40.797Z,11.80
2022-09-20T14:22:08.166Z,11.90
2022-09-20T14:24:37.145Z,12.00
2022-09-20T14:27:19.071Z,12.20
2022-09-20T14:29:50.583Z,12.40
2022-09-20T14:32:17.914Z,12.40
2022-09-20T14:35:11.711Z,12.60
2022-09-20T14:37:47.105Z,12.70
2022-09-20T14:40:26.454Z,12.70
2022-09-20T14:42:55.738Z,12.60
2022-09-20T14:45:30.262Z,12.60
2022-09-20T14:48:11.650Z,12.60
2022-09-20T14:50:46.333Z,12.60
2022-09-20T14:53:26.727Z,12.70
2022-09-20T14:56:04.996Z,12.80
2022-09-20T14:58:33.520Z,12.70
2022-09-20T15:01:05.827Z,12.70
2022-09-20T15:03:41.458Z,12.60
2022-09-20T15:06:11.144Z,12.50
2022-09-20T15:08:40.755Z,12.50
2022-09-20T15:11:18.649Z,12.50
2022-09-20T15:13:46.016Z,12.50
2022-09-20T15:16:13.867Z,12.50
2022-09-20T15:18:42.493Z,12.40
2022-09-20T15:21:11.423Z,12.40
2022-09-20T15:23:39.376Z,12.40
2022-09-20T15:26:07.359Z,12.40
2022-09-20T15:28:35.263Z,12.50
2022-09-20T15:31:04.137Z,12.50
2022-09-20T15:33:32.195Z,12.50
2022-09-20T15:36:01.151Z,12.50
2022-09-20T15:38:28.522Z,12.40
2022-09-20T15:40:55.785Z,12.40
2022-09-20T15:43:28.122Z,12.30
2022-09-20T15:46:02.572Z,12.30
2022-09-20T15:48:30.437Z,12.30
2022-09-20T15:51:08.569Z,12.20
2022-09-20T15:53:40.762Z,12.10
2022-09-20T15:56:19.475Z,12.10
2022-09-20T15:59:16.471Z,12.10
2022-09-20T16:01:44.654Z,12.00
2022-09-20T16:04:19.425Z,12.00
2022-09-20T16:06:49.425Z,11.90
2022-09-20T16:09:18.125Z,11.90
2022-09-20T16:11:48.723Z,11.90
2022-09-20T16:14:16.067Z,11.80
2022-09-20T16:16:43.498Z,11.80
2022-09-20T16:19:23.826Z,11.70
2022-09-20T16:21:58.264Z,11.70
2022-09-20T16:24:28.623Z,11.70
2022-09-20T16:26:56.246Z,11.60
2022-09-20T16:29:25.028Z,11.60
2022-09-20T16:31:53.434Z,11.60
2022-09-20T16:34:22.171Z,11.60
2022-09-20T16:37:16.655Z,11.50
2022-09-20T16:39:44.295Z,11.50
2022-09-20T16:42:13.767Z,11.40
2022-09-20T16:44:42.666Z,11.40
2022-09-20T16:47:18.186Z,11.40
2022-09-20T16:49:48.429Z,11.40
2022-09-20T16:52:40.615Z,11.40
2022-09-20T16:55:08.892Z,11.30
2022-09-20T16:58:04.594Z,11.30
2022-09-20T17:00:33.037Z,11.30
2022-09-20T17:03:00.428Z,11.20
2022-09-20T17:05:28.073Z,11.20
2022-09-20T17:08:22.940Z,11.20
2022-09-20T17:10:52.194Z,11.10
2022-09-20T17:13:44.643Z,11.10
2022-09-20T17:16:13.562Z,11.10
2022-09-20T17:18:42.747Z,11.10
2022-09-20T17:21:16.840Z,11.00
2022-09-20T17:23:50.935Z,11.00
2022-09-20T17:26:31.436Z,11.00
2022-09-20T17:28:59.076Z,11.00
2022-09-20T17:31:57.123Z,10.90
2022-09-20T17:34:28.078Z,10.90
2022-09-20T17:36:55.601Z,10.90
2022-09-20T17:39:23.115Z,10.90
2022-09-20T17:41:51.111Z,10.90
2022-09-20T17:44:19.159Z,10.90
2022-09-20T17:46:48.234Z,10.80
2022-09-20T17:49:20.090Z,10.80
2022-09-20T17:51:51.935Z,10.80
2022-09-20T17:54:27.315Z,10.80
2022-09-20T17:56:56.006Z,10.70
2022-09-20T17:59:24.513Z,10.70
2022-09-20T18:02:19.806Z,10.70
2022-09-20T18:04:47.029Z,10.70
2022-09-20T18:07:14.212Z,10.60
2022-09-20T18:10:44.438Z,10.60
2022-09-20T18:13:12.624Z,10.50
2022-09-20T18:16:10.927Z,10.50
2022-09-20T18:18:39.694Z,10.50
2022-09-20T18:24:23.700Z,10.50
2022-09-20T18:26:51.440Z,10.40
2022-09-20T18:29:19.030Z,10.50
2022-09-20T18:32:11.021Z,10.40
2022-09-20T18:34:38.420Z,10.40
2022-09-20T18:37:09.086Z,10.40
2022-09-20T18:40:29.676Z,10.40
2022-09-20T18:43:27.295Z,10.40
2022-09-20T18:45:54.701Z,10.40
2022-09-20T18:48:24.584Z,10.30
2022-09-20T18:54:49.293Z,10.30
2022-09-20T18:57:16.759Z,10.30
2022-09-20T19:04:07.317Z,10.30
2022-09-20T19:07:36.996Z,10.30
2022-09-20T19:10:15.061Z,10.30
2022-09-20T19:13:22.700Z,10.20
2022-09-20T19:16:04.423Z,10.20
2022-09-20T19:19:13.159Z,10.20
2022-09-20T19:21:58.708Z,10.20
2022-09-20T19:24:44.813Z,10.20
2022-09-20T19:27:12.687Z,10.20
2022-09-20T19:29:40.323Z,10.20
2022-09-20T19:32:24.089Z,10.20
2022-09-20T19:34:52.417Z,10.20
2022-09-20T19:37:58.374Z,10.20
2022-09-20T19:41:08.747Z,10.20
2022-09-20T19:44:18.238Z,10.20
2022-09-20T19:47:26.290Z,10.20
2022-09-20T19:49:55.330Z,10.20
2022-09-20T19:52:23.756Z,10.20
2022-09-20T19:55:21.596Z,10.20
2022-09-20T19:57:49.094Z,10.20
2022-09-20T20:00:18.425Z,10.10
2022-09-20T20:02:50.164Z,10.10
2022-09-20T20:05:19.092Z,10.10
2022-09-20T20:08:18.992Z,10.10
2022-09-20T20:10:58.019Z,10.10
2022-09-20T20:17:41.472Z,10.00
2022-09-20T20:25:16.127Z,10.00
2022-09-20T20:27:43.374Z,10.00
2022-09-20T20:30:11.125Z,10.00
2022-09-20T20:33:05.057Z,10.00
2022-09-20T20:35:32.452Z,9.90
2022-09-20T20:37:59.687Z,9.90
2022-09-20T20:44:47.062Z,9.90
2022-09-20T20:47:14.246Z,9.80
2022-09-20T20:54:01.078Z,9.80
2022-09-20T20:56:29.794Z,9.70
2022-09-20T20:59:00.808Z,9.70
2022-09-20T21:01:38.457Z,9.70
2022-09-20T21:04:07.823Z,9.60
2022-09-20T21:06:36.126Z,9.50
2022-09-20T21:09:04.739Z,9.50
2022-09-20T21:11:33.947Z,9.50
2022-09-20T21:14:02.035Z,9.50
2022-09-20T21:16:30.692Z,9.40
2022-09-20T21:18:58.011Z,9.40
2022-09-20T21:21:30.971Z,9.40
2022-09-20T21:23:59.957Z,9.30
2022-09-20T21:26:28.290Z,9.30
2022-09-20T21:29:00.156Z,9.30
2022-09-20T21:31:28.776Z,9.20
2022-09-20T21:33:56.265Z,9.20
2022-09-20T21:36:24.976Z,9.10
2022-09-20T21:38:52.292Z,9.10
2022-09-20T21:41:22.037Z,9.10
2022-09-20T21:43:53.785Z,9.10
2022-09-20T21:46:29.193Z,9.00
2022-09-20T21:48:57.352Z,9.00
2022-09-20T21:51:25.271Z,9.00
2022-09-20T21:53:54.252Z,9.00
2022-09-20T21:56:21.461Z,9.00
2022-09-20T21:58:48.646Z,9.00
2022-09-20T22:01:17.672Z,8.90
2022-09-20T22:03:46.580Z,8.90
2022-09-20T22:06:18.229Z,8.80
2022-09-20T22:09:05.624Z,8.80
2022-09-20T22:11:40.968Z,8.80
2022-09-20T22:14:08.692Z,8.70
2022-09-20T22:16:37.869Z,8.70
2022-09-20T22:19:05.816Z,8.60
2022-09-20T22:21:37.604Z,8.60
2022-09-20T22:24:06.759Z,8.60
2022-09-20T22:26:38.558Z,8.50
2022-09-20T22:29:06.528Z,8.50
2022-09-20T22:35:24.024Z,8.40
2022-09-20T22:38:43.154Z,8.40
2022-09-20T22:41:10.723Z,8.40
2022-09-20T22:43:37.982Z,8.30
2022-09-20T22:46:59.217Z,8.30
2022-09-20T22:49:31.741Z,8.20
2022-09-20T22:51:58.934Z,8.10
2022-09-20T22:54:26.293Z,8.10
2022-09-20T22:57:06.792Z,8.10
2022-09-20T22:59:34.137Z,8.00
2022-09-20T23:02:01.784Z,8.00
2022-09-20T23:08:48.628Z,8.00
2022-09-20T23:12:16.273Z,7.90
2022-09-20T23:14:44.087Z,7.90
2022-09-20T23:17:11.237Z,7.90
2022-09-20T23:19:42.688Z,7.80
2022-09-20T23:22:09.867Z,7.80
2022-09-20T23:24:37.060Z,7.80
2022-09-20T23:27:04.524Z,7.70
2022-09-20T23:29:32.560Z,7.70
2022-09-20T23:31:59.817Z,7.70
2022-09-20T23:34:55.019Z,7.70
2022-09-20T23:37:22.199Z,7.60
2022-09-20T23:39:49.429Z,7.70
2022-09-20T23:43:00.891Z,7.60
2022-09-20T23:46:22.138Z,7.60
2022-09-20T23:48:50.476Z,7.60
2022-09-20T23:51:22.524Z,7.60
2022-09-20T23:54:50.169Z,7.60
2022-09-20T23:57:17.912Z,7.60
2022-09-20T23:59:45.109Z,7.60
